Time,TemperatureF,DewpointF,PressureIn,WindDirection,WindDirectionDegrees,WindSpeedMPH,WindSpeedGustMPH,Humidity,HourlyPrecipIn,Conditions,Clouds,dailyrainin,SoftwareType,DateUTC
2013-10-22 00:00:00,31.9,24.6,29.86,WNW,296,0.0,0.0,74,0.00,,---,0.00,VWS V14.01,2013-10-22 05:00:00,
2013-10-22 00:30:00,31.6,24.3,29.86,NNW,336,3.0,7.0,74,0.00,,---,0.00,VWS V14.01,2013-10-22 05:30:00,
2013-10-22 01:00:00,31.4,24.1,29.86,NW,311,2.0,10.0,74,0.00,,---,0.00,VWS V14.01,2013-10-22 06:00:00,
2013-10-22 01:30:00,30.8,24.1,29.86,WSW,252,1.0,7.0,76,0.00,,---,0.00,VWS V14.01,2013-10-22 06:30:00,
2013-10-22 02:00:00,30.7,24.0,29.87,WNW,293,1.0,9.0,76,0.00,,---,0.00,VWS V14.01,2013-10-22 07:00:00,
2013-10-22 02:30:00,29.7,23.4,29.87,WNW,300,0.0,6.0,77,0.00,,---,0.00,VWS V14.01,2013-10-22 07:30:00,
2013-10-22 03:00:00,29.0,23.3,29.87,WNW,296,1.0,4.0,79,0.00,,---,0.00,VWS V14.01,2013-10-22 08:00:00,
2013-10-22 03:30:00,28.7,23.6,29.87,WNW,296,0.0,3.0,81,0.00,,---,0.00,VWS V14.01,2013-10-22 08:30:00,
2013-10-22 04:00:00,27.9,23.1,29.87,NW,316,0.0,4.0,82,0.00,,---,0.00,VWS V14.01,2013-10-22 09:00:00,
2013-10-22 04:30:00,27.5,23.0,29.88,WNW,300,1.0,5.0,83,0.00,,---,0.00,VWS V14.01,2013-10-22 09:30:00,
2013-10-22 05:00:00,27.0,22.8,29.89,WNW,289,0.0,5.0,84,0.00,,---,0.00,VWS V14.01,2013-10-22 10:00:00,
2013-10-22 05:30:00,27.3,23.1,29.89,WNW,303,0.0,4.0,84,0.00,,---,0.00,VWS V14.01,2013-10-22 10:30:00,
2013-10-22 06:00:00,27.5,23.3,29.88,WNW,286,2.0,6.0,84,0.00,,---,0.00,VWS V14.01,2013-10-22 11:00:00,
2013-10-22 06:30:00,27.9,23.4,29.88,NW,307,2.0,9.0,83,0.00,,---,0.00,VWS V14.01,2013-10-22 11:30:00,
2013-10-22 07:00:00,28.1,23.6,29.88,NW,325,2.0,9.0,83,0.00,,---,0.00,VWS V14.01,2013-10-22 12:00:00,
2013-10-22 07:30:00,27.8,23.6,29.88,West,272,0.0,5.0,84,0.00,,---,0.00,VWS V14.01,2013-10-22 12:30:00,
2013-10-22 08:00:00,28.6,24.1,29.89,NW,325,1.0,5.0,83,0.00,,---,0.00,VWS V14.01,2013-10-22 13:00:00,
2013-10-22 08:30:00,30.2,25.1,29.90,NW,309,5.0,12.0,81,0.00,,---,0.00,VWS V14.01,2013-10-22 13:30:00,
2013-10-22 09:00:00,31.6,25.5,29.89,WNW,300,4.0,10.0,78,0.00,,---,0.00,VWS V14.01,2013-10-22 14:00:00,
2013-10-22 09:30:00,34.0,27.2,29.90,NW,306,2.0,13.0,76,0.00,,---,0.00,VWS V14.01,2013-10-22 14:30:00,
2013-10-22 10:00:00,35.3,27.2,29.89,NNW,344,6.0,12.0,72,0.00,,---,0.00,VWS V14.01,2013-10-22 15:00:00,
2013-10-22 10:30:00,37.1,28.6,29.88,NNW,340,6.0,12.0,71,0.00,,---,0.00,VWS V14.01,2013-10-22 15:30:00,
2013-10-22 11:00:00,37.8,28.6,29.87,NW,313,0.0,11.0,69,0.00,,---,0.00,VWS V14.01,2013-10-22 16:00:00,
2013-10-22 11:30:00,38.2,28.6,29.87,NW,324,4.0,12.0,68,0.00,,---,0.00,VWS V14.01,2013-10-22 16:30:00,
2013-10-22 12:00:00,38.8,28.8,29.86,NNW,344,0.0,11.0,67,0.00,,---,0.00,VWS V14.01,2013-10-22 17:00:00,
2013-10-22 12:30:00,39.6,29.2,29.85,NNW,337,0.0,1.0,66,0.00,,---,0.00,VWS V14.01,2013-10-22 17:30:00,
2013-10-22 13:00:00,40.3,29.5,29.84,NNW,339,0.0,7.0,65,0.00,,---,0.00,VWS V14.01,2013-10-22 18:00:00,
2013-10-22 13:30:00,41.7,30.4,29.83,NW,308,0.0,0.0,64,0.00,,---,0.00,VWS V14.01,2013-10-22 18:30:00,
2013-10-22 14:00:00,42.0,30.3,29.83,NW,306,0.0,1.0,63,0.00,,---,0.00,VWS V14.01,2013-10-22 19:00:00,
2013-10-22 14:30:00,42.0,29.9,29.83,SW,225,0.0,2.0,62,0.00,,---,0.00,VWS V14.01,2013-10-22 19:30:00,
2013-10-22 15:00:00,42.5,29.6,29.83,WNW,300,0.0,2.0,60,0.00,,---,0.00,VWS V14.01,2013-10-22 20:00:00,
2013-10-22 15:30:00,42.5,30.8,29.83,SW,233,0.0,2.0,63,0.00,,---,0.00,VWS V14.01,2013-10-22 20:30:00,
2013-10-22 16:00:00,42.9,30.4,29.83,NW,311,0.0,2.0,61,0.00,,---,0.00,VWS V14.01,2013-10-22 21:00:00,
2013-10-22 16:30:00,42.9,30.4,29.83,NW,317,0.0,1.0,61,0.00,,---,0.00,VWS V14.01,2013-10-22 21:30:00,
2013-10-22 17:00:00,42.7,28.5,29.84,North,355,0.0,8.0,57,0.00,,---,0.00,VWS V14.01,2013-10-22 22:00:00,
2013-10-22 17:30:00,41.7,28.9,29.83,North,355,0.0,1.0,60,0.00,,---,0.00,VWS V14.01,2013-10-22 22:30:00,
2013-10-22 18:00:00,40.1,28.9,29.84,North,355,0.0,1.0,64,0.00,,---,0.00,VWS V14.01,2013-10-22 23:00:00,
2013-10-22 18:30:00,38.0,28.8,29.84,North,355,0.0,0.0,69,0.00,,---,0.00,VWS V14.01,2013-10-22 23:30:00,
2013-10-22 19:00:00,35.2,29.0,29.84,North,355,0.0,0.0,78,0.00,,---,0.00,VWS V14.01,2013-10-23 00:00:00,
2013-10-22 19:30:00,33.0,27.8,29.85,North,355,0.0,0.0,81,0.00,,---,0.00,VWS V14.01,2013-10-23 00:30:00,
2013-10-22 20:00:00,31.1,27.1,29.85,North,355,0.0,0.0,85,0.00,,---,0.00,VWS V14.01,2013-10-23 01:00:00,
2013-10-22 20:30:00,29.9,26.5,29.85,North,355,0.0,0.0,87,0.00,,---,0.00,VWS V14.01,2013-10-23 01:30:00,
2013-10-22 21:00:00,29.4,26.3,29.86,North,355,0.0,0.0,88,0.00,,---,0.00,VWS V14.01,2013-10-23 02:00:00,
2013-10-22 21:30:00,29.5,26.7,29.86,North,355,0.0,0.0,89,0.00,,---,0.00,VWS V14.01,2013-10-23 02:30:00,
2013-10-22 22:00:00,29.4,26.3,29.86,North,355,0.0,0.0,88,0.00,,---,0.00,VWS V14.01,2013-10-23 03:00:00,
2013-10-22 22:30:00,28.7,25.6,29.86,North,355,0.0,0.0,88,0.00,,---,0.00,VWS V14.01,2013-10-23 03:30:00,
2013-10-22 23:00:00,28.1,25.0,29.86,North,355,0.0,0.0,88,0.00,,---,0.00,VWS V14.01,2013-10-23 04:00:00,
2013-10-22 23:30:00,28.3,25.8,29.85,North,355,0.0,0.0,90,0.00,,---,0.00,VWS V14.01,2013-10-23 04:30:00,